Time;durP1;ratioP1;P1;durP2;ratioP2;P2;SDS_P1;SDS_P2;PMS_P1;PMS_P2;Temp;Humidity;BMP_temperature;BMP_pressure;BME280_temperature;BME280_humidity;BME280_pressure;Samples;Min_cycle;Max_cycle;Signal;HPM_P1;HPM_P2
2022/09/03 00:00:09;;;;;;;13.75;7.13;;;;;;;;;;5062787;28;20131;-72
2022/09/03 00:02:34;;;;;;;10.32;6.32;;;;;;;;;;5065722;28;20024;-73
2022/09/03 00:05:10;;;;;;;10.40;7.47;;;;;;;;;;5064897;28;20024;-73
2022/09/03 00:07:36;;;;;;;10.07;6.90;;;;;;;;;;5066274;28;20107;-73
2022/09/03 00:10:11;;;;;;;10.88;7.40;;;;;;;15.87;nan;100583.59;5062894;28;20119;-72
2022/09/03 00:12:39;;;;;;;8.15;6.28;;;;;;;;;;5064746;28;20055;-73
2022/09/03 00:15:06;;;;;;;11.23;7.13;;;;;;;;;;5064344;28;20056;-73
2022/09/03 00:17:36;;;;;;;12.57;7.35;;;;;;;;;;5069101;28;20444;-75
2022/09/03 00:20:04;;;;;;;10.30;7.32;;;;;;;;;;5066475;28;20096;-74
2022/09/03 00:22:32;;;;;;;13.70;7.63;;;;;;;;;;5046242;28;20955;-75
2022/09/03 00:24:59;;;;;;;10.38;6.97;;;;;;;;;;5066814;28;20085;-75
2022/09/03 00:27:26;;;;;;;11.95;6.88;;;;;;;;;;5070476;28;20039;-72
2022/09/03 00:29:56;;;;;;;9.68;7.03;;;;;;;;;;5062487;28;20100;-75
2022/09/03 00:32:33;;;;;;;8.48;6.55;;;;;;;;;;5059850;28;20600;-72
2022/09/03 00:35:04;;;;;;;10.18;6.53;;;;;;;15.98;nan;100589.00;5061546;28;20060;-72
2022/09/03 00:37:30;;;;;;;9.95;6.40;;;;;;;;;;5065113;28;20107;-74
2022/09/03 00:39:55;;;;;;;8.15;6.10;;;;;;;;;;5073333;28;20157;-73
2022/09/03 00:42:27;;;;;;;9.93;6.25;;;;;;;;;;5066409;28;20494;-73
2022/09/03 00:44:53;;;;;;;10.00;6.95;;;;;;;;;;5066385;28;20017;-73
2022/09/03 00:47:37;;;;;;;9.80;6.40;;;;;;;;;;5062907;28;20032;-73
2022/09/03 00:50:09;;;;;;;10.45;6.53;;;;;;;;;;5065972;28;20148;-73
2022/09/03 00:52:38;;;;;;;11.18;7.03;;;;;;;;;;5053101;28;20028;-74
2022/09/03 00:55:11;;;;;;;13.55;7.10;;;;;;;;;;5071458;28;20031;-74
2022/09/03 00:57:55;;;;;;;10.25;7.10;;;;;;;;;;5053577;28;20459;-74
2022/09/03 01:00:21;;;;;;;10.13;6.82;;;;;;;;;;5052837;28;20227;-74
2022/09/03 01:02:56;;;;;;;11.23;7.00;;;;;;;;;;5068315;28;20567;-74
2022/09/03 01:05:34;;;;;;;8.85;6.68;;;;;;;15.98;nan;100615.56;5052619;28;20035;-74
2022/09/03 01:08:07;;;;;;;12.07;6.68;;;;;;;;;;5069748;28;20029;-73
2022/09/03 01:10:38;;;;;;;8.23;6.43;;;;;;;;;;5066425;28;20835;-74
2022/09/03 01:13:03;;;;;;;12.27;6.82;;;;;;;;;;5065525;28;20017;-73
2022/09/03 01:15:32;;;;;;;10.10;6.72;;;;;;;;;;5049916;28;20059;-73
2022/09/03 01:18:06;;;;;;;11.15;6.60;;;;;;;;;;5072626;28;20039;-75
2022/09/03 01:20:38;;;;;;;11.50;6.55;;;;;;;;;;5072214;28;20079;-74
2022/09/03 01:23:06;;;;;;;10.52;6.65;;;;;;;;;;5057400;28;20020;-73
2022/09/03 01:25:50;;;;;;;13.20;6.53;;;;;;;;;;5066604;28;20061;-73
2022/09/03 01:28:24;;;;;;;11.02;6.20;;;;;;;;;;5047780;28;20569;-73
2022/09/03 01:30:55;;;;;;;10.43;6.47;;;;;;;;;;5061948;28;20044;-73
2022/09/03 01:33:26;;;;;;;11.73;6.65;;;;;;;;;;5048890;28;20128;-74
2022/09/03 01:36:03;;;;;;;10.43;6.20;;;;;;;;;;5073794;28;20024;-74
2022/09/03 01:38:45;;;;;;;9.82;6.28;;;;;;;;;;5068535;28;20032;-73
2022/09/03 01:44:05;;;;;;;12.65;6.50;;;;;;;;;;5063987;28;20032;-73
2022/09/03 01:46:36;;;;;;;11.50;6.70;;;;;;;;;;5050574;28;20029;-74
2022/09/03 01:49:21;;;;;;;11.18;7.22;;;;;;;;;;5053530;28;20054;-73
2022/09/03 01:51:50;;;;;;;11.02;6.78;;;;;;;;;;5067525;28;20021;-73
2022/09/03 01:54:15;;;;;;;10.25;7.00;;;;;;;;;;5053505;28;20048;-74
2022/09/03 01:56:59;;;;;;;12.98;7.13;;;;;;;;;;5067616;28;20075;-73
2022/09/03 01:59:25;;;;;;;9.88;7.40;;;;;;;;;;5074084;28;20020;-73
2022/09/03 02:01:50;;;;;;;12.57;7.57;;;;;;;;;;5071383;28;20036;-73
2022/09/03 02:04:22;;;;;;;12.00;7.90;;;;;;;;;;5070863;28;20282;-74
2022/09/03 02:06:47;;;;;;;12.00;7.50;;;;;;;;;;5054864;28;20445;-74
2022/09/03 02:09:13;;;;;;;10.75;7.88;;;;;;;;;;5068918;28;20029;-73
2022/09/03 02:11:40;;;;;;;10.75;8.27;;;;;;;;;;5065114;28;20483;-73
2022/09/03 02:14:05;;;;;;;11.48;8.13;;;;;;;;;;5059608;28;20032;-74
2022/09/03 02:16:32;;;;;;;13.75;7.90;;;;;;;;;;5063084;28;20379;-73
2022/09/03 02:18:59;;;;;;;14.25;8.45;;;;;;;;;;5052693;28;20032;-73
2022/09/03 02:21:26;;;;;;;11.35;7.88;;;;;;;;;;5055957;28;20119;-75
2022/09/03 02:23:52;;;;;;;8.98;7.28;;;;;;;15.78;nan;100643.56;5068944;28;20165;-74
2022/09/03 02:26:20;;;;;;;11.23;7.60;;;;;;;;;;5058079;28;20111;-74
2022/09/03 02:28:45;;;;;;;11.48;7.60;;;;;;;;;;5049684;28;20075;-74
2022/09/03 02:31:11;;;;;;;11.07;7.68;;;;;;;;;;5050812;28;20024;-74
2022/09/03 02:33:39;;;;;;;10.23;7.10;;;;;;;15.73;nan;100657.59;5069799;28;20367;-73
2022/09/03 02:36:05;;;;;;;10.93;7.10;;;;;;;;;;5068875;28;20277;-73
2022/09/03 02:38:31;;;;;;;12.57;7.22;;;;;;;;;;5062863;28;20032;-73
2022/09/03 02:40:56;;;;;;;9.68;7.35;;;;;;;;;;5068577;28;20530;-73
2022/09/03 02:43:31;;;;;;;10.52;6.75;;;;;;;;;;5068438;28;20040;-73
2022/09/03 02:46:00;;;;;;;9.60;7.07;;;;;;;;;;5072820;28;20402;-73
2022/09/03 02:48:26;;;;;;;8.25;6.78;;;;;;;;;;5064557;28;20029;-74
2022/09/03 02:50:51;;;;;;;8.07;5.93;;;;;;;;;;5071042;28;20028;-73
2022/09/03 02:53:16;;;;;;;6.88;5.60;;;;;;;;;;5067491;28;20032;-74
2022/09/03 02:55:42;;;;;;;7.95;5.80;;;;;;;;;;5073324;28;20028;-73
2022/09/03 02:58:07;;;;;;;7.90;5.33;;;;;;;;;;5073795;28;20043;-73
2022/09/03 03:00:34;;;;;;;7.18;5.28;;;;;;;;;;5063512;28;20033;-74
2022/09/03 03:03:00;;;;;;;10.65;5.60;;;;;;;;;;5068936;28;20035;-73
2022/09/03 03:05:29;;;;;;;6.65;4.38;;;;;;;;;;5053050;28;20115;-73
2022/09/03 03:07:54;;;;;;;6.25;4.32;;;;;;;;;;5068672;28;20112;-73
2022/09/03 03:10:20;;;;;;;7.30;3.97;;;;;;;;;;5071597;28;20095;-73
2022/09/03 03:12:45;;;;;;;6.17;4.17;;;;;;;;;;5056306;28;20021;-74
2022/09/03 03:15:10;;;;;;;7.57;3.97;;;;;;;15.52;nan;100632.69;5043960;28;20048;-74
2022/09/03 03:17:36;;;;;;;6.57;4.28;;;;;;;15.52;nan;100656.56;5068375;28;20382;-74
2022/09/03 03:20:01;;;;;;;5.10;3.90;;;;;;;;;;5063753;28;20048;-74
2022/09/03 03:22:26;;;;;;;5.95;3.90;;;;;;;;;;5055645;28;20063;-73
2022/09/03 03:24:54;;;;;;;6.22;4.45;;;;;;;;;;5062546;28;20028;-73
2022/09/03 03:27:19;;;;;;;7.05;4.10;;;;;;;;;;5054253;28;20025;-74
2022/09/03 03:29:44;;;;;;;6.30;4.40;;;;;;;;;;5065475;28;20041;-73
2022/09/03 03:32:09;;;;;;;5.50;4.10;;;;;;;;;;5053072;28;20280;-73
2022/09/03 03:34:35;;;;;;;5.00;4.23;;;;;;;;;;5054928;28;20032;-73
2022/09/03 03:37:00;;;;;;;6.87;4.27;;;;;;;15.46;nan;100585.13;5066637;28;20544;-74
2022/09/03 03:39:25;;;;;;;6.38;4.50;;;;;;;;;;5066630;28;20288;-72
2022/09/03 03:41:51;;;;;;;8.50;4.67;;;;;;;;;;5064451;28;20020;-74
2022/09/03 03:44:18;;;;;;;7.22;4.65;;;;;;;;;;5064840;28;20317;-73
2022/09/03 03:46:44;;;;;;;4.93;4.20;;;;;;;;;;5046369;28;20664;-73
2022/09/03 03:49:09;;;;;;;5.90;3.90;;;;;;;;;;5066764;28;20021;-73
2022/09/03 03:51:36;;;;;;;4.65;3.72;;;;;;;;;;5053464;28;20279;-73
2022/09/03 03:54:01;;;;;;;6.28;4.40;;;;;;;;;;5065529;28;20031;-73
2022/09/03 03:56:26;;;;;;;5.05;3.90;;;;;;;;;;5067692;28;20028;-74
2022/09/03 03:58:52;;;;;;;5.90;4.43;;;;;;;;;;5058621;28;20230;-73
2022/09/03 04:01:20;;;;;;;5.47;4.72;;;;;;;;;;5049130;28;20107;-73
2022/09/03 04:03:46;;;;;;;5.25;4.30;;;;;;;;;;5067249;28;20024;-74
2022/09/03 04:06:12;;;;;;;7.00;4.45;;;;;;;;;;5070903;28;20035;-73
2022/09/03 04:08:39;;;;;;;6.63;4.25;;;;;;;;;;5044072;28;20032;-73
2022/09/03 04:11:05;;;;;;;8.55;3.95;;;;;;;;;;5072820;28;20402;-73
2022/09/03 04:13:31;;;;;;;6.88;4.28;;;;;;;;;;5066865;28;20050;-71
2022/09/03 04:16:04;;;;;;;5.28;3.75;;;;;;;;;;5067233;28;20059;-73
2022/09/03 04:18:30;;;;;;;7.80;3.67;;;;;;;;;;5066127;28;20024;-73
2022/09/03 04:21:03;;;;;;;3.92;3.47;;;;;;;;;;5053684;28;20486;-72
2022/09/03 04:23:29;;;;;;;3.83;3.35;;;;;;;;;;5059790;28;20062;-75
2022/09/03 04:25:54;;;;;;;5.88;3.58;;;;;;;;;;5061094;28;20057;-75
2022/09/03 04:28:19;;;;;;;3.83;3.40;;;;;;;;;;5050907;28;20505;-73
2022/09/03 04:30:45;;;;;;;5.80;3.13;;;;;;;15.23;nan;100636.66;5065528;28;20113;-72
2022/09/03 04:33:10;;;;;;;5.45;3.20;;;;;;;;;;5063961;28;20434;-73
2022/09/03 04:35:35;;;;;;;3.40;2.97;;;;;;;;;;5052122;28;20533;-73
2022/09/03 04:38:03;;;;;;;3.42;2.53;;;;;;;;;;5069603;28;20098;-73
2022/09/03 04:40:28;;;;;;;4.70;3.30;;;;;;;;;;5071174;28;20024;-73
2022/09/03 04:42:58;;;;;;;4.47;2.67;;;;;;;;;;5066462;28;20054;-73
2022/09/03 04:45:23;;;;;;;;;;;;;;;;;;5051829;28;20278;-73
2022/09/03 04:47:58;;;;;;;4.03;3.17;;;;;;;;;;5063749;28;19916;-73
2022/09/03 04:50:26;;;;;;;4.22;3.45;;;;;;;;;;5069513;28;20032;-74
2022/09/03 04:52:55;;;;;;;4.60;2.80;;;;;;;;;;5049610;28;20061;-74
2022/09/03 04:55:20;;;;;;;7.35;2.80;;;;;;;;;;5064707;28;20024;-74
2022/09/03 04:57:45;;;;;;;5.63;2.92;;;;;;;;;;5073674;28;20509;-74
2022/09/03 05:00:11;;;;;;;7.00;3.00;;;;;;;;;;5048321;28;20027;-74
2022/09/03 05:02:36;;;;;;;4.95;3.00;;;;;;;;;;5066675;28;20474;-74
2022/09/03 05:05:02;;;;;;;4.17;3.13;;;;;;;;;;5064982;28;20052;-76
2022/09/03 05:07:37;;;;;;;5.20;2.85;;;;;;;;;;5067744;28;20281;-74
2022/09/03 05:10:03;;;;;;;5.53;3.10;;;;;;;;;;5063719;28;20407;-76
2022/09/03 05:12:30;;;;;;;4.50;3.28;;;;;;;;;;5049643;28;20024;-73
2022/09/03 05:14:55;;;;;;;5.63;3.25;;;;;;;;;;5065554;28;20045;-74
2022/09/03 05:17:21;;;;;;;7.40;3.20;;;;;;;;;;5074372;28;20512;-75
2022/09/03 05:19:46;;;;;;;3.90;3.07;;;;;;;;;;5050170;28;20031;-74
2022/09/03 05:22:11;;;;;;;5.83;3.27;;;;;;;15.38;nan;100711.09;5048633;28;20277;-74
2022/09/03 05:24:36;;;;;;;4.70;3.67;;;;;;;;;;5047379;28;20496;-73
2022/09/03 05:27:02;;;;;;;4.23;3.10;;;;;;;;;;5046674;28;20032;-75
2022/09/03 05:29:27;;;;;;;5.47;3.10;;;;;;;;;;5065081;28;20308;-74
2022/09/03 05:31:52;;;;;;;4.10;3.00;;;;;;;;;;5045826;28;20270;-75
2022/09/03 05:34:18;;;;;;;4.90;3.30;;;;;;;;;;5066424;28;20281;-73
2022/09/03 05:36:45;;;;;;;4.27;3.30;;;;;;;;;;5047952;28;20478;-73
2022/09/03 05:39:11;;;;;;;4.00;3.10;;;;;;;;;;5069441;28;20021;-74
2022/09/03 05:41:36;;;;;;;4.33;3.47;;;;;;;;;;5065920;28;20109;-74
2022/09/03 05:44:02;;;;;;;7.13;3.83;;;;;;;;;;5065966;28;20025;-74
2022/09/03 05:46:30;;;;;;;7.53;3.78;;;;;;;;;;5049230;28;20802;-74
2022/09/03 05:49:05;;;;;;;6.78;3.20;;;;;;;;;;5066587;28;20134;-74
2022/09/03 05:51:31;;;;;;;6.15;3.88;;;;;;;;;;5069475;28;20020;-74
2022/09/03 05:53:57;;;;;;;5.75;3.60;;;;;;;;;;5052560;28;20021;-75
2022/09/03 05:56:23;;;;;;;7.93;4.13;;;;;;;;;;5054308;28;20024;-74
2022/09/03 05:58:53;;;;;;;7.13;4.20;;;;;;;;;;5052340;28;20032;-74
2022/09/03 06:01:28;;;;;;;7.13;4.22;;;;;;;;;;5074067;28;20024;-74
2022/09/03 06:04:04;;;;;;;5.88;4.18;;;;;;;;;;5050176;28;20450;-74
2022/09/03 06:06:30;;;;;;;6.03;4.47;;;;;;;;;;5065386;28;20070;-74
2022/09/03 06:08:59;;;;;;;6.90;4.60;;;;;;;;;;5069442;28;20070;-73
2022/09/03 06:11:26;;;;;;;8.77;4.60;;;;;;;;;;5052465;28;20031;-75
2022/09/03 06:13:52;;;;;;;7.55;4.43;;;;;;;;;;5068754;28;20513;-74
2022/09/03 06:16:18;;;;;;;8.02;4.82;;;;;;;;;;5071837;28;20052;-74
2022/09/03 06:18:43;;;;;;;11.23;4.47;;;;;;;;;;5053337;28;20082;-74
2022/09/03 06:21:08;;;;;;;9.97;4.67;;;;;;;;;;5071784;28;20288;-74
2022/09/03 06:23:34;;;;;;;9.27;4.50;;;;;;;;;;5072694;28;20037;-74
2022/09/03 06:26:00;;;;;;;8.02;4.03;;;;;;;;;;5069899;28;20065;-73
2022/09/03 06:28:26;;;;;;;6.70;4.22;;;;;;;;;;5052302;28;20107;-74
2022/09/03 06:30:51;;;;;;;4.38;3.67;;;;;;;;;;5072074;28;20170;-73
2022/09/03 06:33:17;;;;;;;7.00;4.25;;;;;;;;;;5053841;28;20652;-74
2022/09/03 06:35:42;;;;;;;7.10;3.40;;;;;;;;;;5065303;28;20159;-73
2022/09/03 06:38:11;;;;;;;4.50;3.47;;;;;;;;;;5063130;28;20024;-74
2022/09/03 06:40:36;;;;;;;7.05;3.83;;;;;;;;;;5048754;28;20077;-73
2022/09/03 06:43:02;;;;;;;5.70;3.87;;;;;;;;;;5064724;28;20020;-74
2022/09/03 06:45:28;;;;;;;4.32;3.42;;;;;;;;;;5070723;28;20017;-75
2022/09/03 06:47:53;;;;;;;7.80;3.45;;;;;;;;;;5053405;28;20170;-74
2022/09/03 06:50:19;;;;;;;4.57;2.70;;;;;;;;;;5046468;28;20032;-73
2022/09/03 06:52:49;;;;;;;3.67;2.50;;;;;;;;;;5070321;28;20547;-74
2022/09/03 06:55:14;;;;;;;2.95;2.13;;;;;;;;;;5070033;28;20341;-74
2022/09/03 06:57:40;;;;;;;3.90;2.00;;;;;;;;;;5074267;28;20115;-75
2022/09/03 07:00:05;;;;;;;3.77;2.00;;;;;;;;;;5066097;28;20103;-74
2022/09/03 07:02:32;;;;;;;2.80;1.85;;;;;;;;;;5067705;28;20078;-74
2022/09/03 07:04:57;;;;;;;2.22;1.50;;;;;;;;;;5070829;28;20177;-74
2022/09/03 07:07:23;;;;;;;1.90;1.38;;;;;;;;;;5056852;28;20058;-70
2022/09/03 07:09:48;;;;;;;2.07;1.37;;;;;;;;;;5070008;28;20020;-72
2022/09/03 07:12:15;;;;;;;1.93;1.17;;;;;;;;;;5065174;28;20856;-74
2022/09/03 07:14:41;;;;;;;2.70;1.48;;;;;;;;;;5068308;28;20301;-74
2022/09/03 07:17:06;;;;;;;2.80;1.63;;;;;;;;;;5067517;28;20031;-75
2022/09/03 07:19:31;;;;;;;3.07;2.23;;;;;;;;;;5050257;28;20031;-72
2022/09/03 07:21:56;;;;;;;3.80;2.37;;;;;;;;;;5049797;28;20289;-74
2022/09/03 07:24:22;;;;;;;5.27;3.37;;;;;;;;;;5051960;28;20273;-73
2022/09/03 07:26:48;;;;;;;5.80;3.58;;;;;;;;;;5058629;28;20024;-71
2022/09/03 07:29:14;;;;;;;4.32;3.80;;;;;;;;;;5052606;28;20419;-74
2022/09/03 07:31:40;;;;;;;5.63;3.80;;;;;;;;;;5058893;28;20034;-73
2022/09/03 07:34:07;;;;;;;5.65;4.20;;;;;;;;;;5052311;28;20115;-72
2022/09/03 07:36:41;;;;;;;5.60;3.88;;;;;;;;;;5051714;28;20430;-73
2022/09/03 07:39:07;;;;;;;4.53;3.40;;;;;;;;;;5050106;28;20078;-73
2022/09/03 07:41:32;;;;;;;4.25;3.50;;;;;;;;;;5070101;28;20386;-72
2022/09/03 07:43:58;;;;;;;5.57;3.33;;;;;;;;;;5069088;28;20035;-73
2022/09/03 07:46:25;;;;;;;6.82;3.40;;;;;;;;;;5067280;28;20067;-73
2022/09/03 07:48:51;;;;;;;5.13;2.97;;;;;;;;;;5045599;28;20033;-73
2022/09/03 07:51:17;;;;;;;5.00;3.03;;;;;;;;;;5066724;28;20055;-72
2022/09/03 07:53:43;;;;;;;5.65;3.28;;;;;;;;;;5076025;28;20061;-71
2022/09/03 07:56:09;;;;;;;3.95;2.38;;;;;;;;;;5045952;28;20145;-73
2022/09/03 07:58:35;;;;;;;3.20;2.00;;;;;;;;;;5061294;28;20053;-73
2022/09/03 08:01:08;;;;;;;5.32;2.25;;;;;;;;;;5059330;28;20533;-73
2022/09/03 08:03:34;;;;;;;3.47;1.63;;;;;;;;;;5063892;28;20602;-73
2022/09/03 08:06:03;;;;;;;1.95;1.70;;;;;;;;;;5044063;28;20024;-73
2022/09/03 08:08:29;;;;;;;5.68;2.40;;;;;;;;;;5068533;28;20033;-72
2022/09/03 08:10:57;;;;;;;3.58;2.35;;;;;;;;;;5066866;28;20050;-74
2022/09/03 08:13:23;;;;;;;4.82;2.55;;;;;;;;;;5065224;28;20032;-71
2022/09/03 08:15:55;;;;;;;4.28;2.63;;;;;;;16.83;nan;100773.19;5052009;28;20041;-70
2022/09/03 08:18:21;;;;;;;4.03;2.80;;;;;;;;;;5064146;28;20028;-69
2022/09/03 08:20:46;;;;;;;3.42;2.40;;;;;;;;;;5061719;28;20028;-70
2022/09/03 08:23:13;;;;;;;2.60;1.90;;;;;;;;;;5047549;28;20078;-70
2022/09/03 08:25:38;;;;;;;2.50;2.13;;;;;;;;;;5063539;28;20071;-70
2022/09/03 08:28:03;;;;;;;2.90;2.20;;;;;;;;;;5059093;28;20067;-70
2022/09/03 08:30:33;;;;;;;4.57;2.37;;;;;;;;;;5065231;28;20048;-68
2022/09/03 08:33:00;;;;;;;3.78;1.98;;;;;;;;;;5067534;28;20028;-69
2022/09/03 08:35:25;;;;;;;2.38;1.77;;;;;;;;;;5055084;28;20028;-68
2022/09/03 08:37:52;;;;;;;4.18;1.80;;;;;;;;;;5052425;28;20470;-69
2022/09/03 08:40:18;;;;;;;2.63;1.60;;;;;;;;;;5065829;28;20025;-70
2022/09/03 08:43:04;;;;;;;1.67;1.52;;;;;;;;;;5066729;28;20040;-68
2022/09/03 08:45:30;;;;;;;1.55;1.42;;;;;;;;;;5069058;28;20031;-70
2022/09/03 08:48:03;;;;;;;3.33;1.40;;;;;;;;;;5049213;28;20029;-70
2022/09/03 08:50:31;;;;;;;1.67;1.50;;;;;;;;;;5063178;28;20041;-69
2022/09/03 08:53:00;;;;;;;3.88;1.77;;;;;;;;;;5064721;28;20046;-70
2022/09/03 08:55:27;;;;;;;2.05;1.65;;;;;;;;;;5068342;28;20024;-73
2022/09/03 08:58:19;;;;;;;3.65;1.70;;;;;;;17.52;nan;100724.22;5069805;28;20051;-71
2022/09/03 09:01:00;;;;;;;3.38;1.88;;;;;;;;;;5066107;28;20028;-73
2022/09/03 09:03:37;;;;;;;2.30;1.70;;;;;;;;;;5065255;28;20166;-72
2022/09/03 09:06:12;;;;;;;3.90;1.75;;;;;;;;;;5061668;28;20793;-75
2022/09/03 09:08:43;;;;;;;2.60;2.03;;;;;;;;;;5062351;28;20581;-71
2022/09/03 09:11:31;;;;;;;5.97;2.10;;;;;;;;;;5065818;28;20070;-72
2022/09/03 09:14:02;;;;;;;3.63;2.50;;;;;;;17.22;nan;100752.38;5064515;28;20402;-72
2022/09/03 09:16:29;;;;;;;3.72;2.42;;;;;;;;;;5071031;28;20075;-72
2022/09/03 09:18:54;;;;;;;3.58;2.70;;;;;;;;;;5062327;28;20962;-72
2022/09/03 09:21:26;;;;;;;4.47;3.33;;;;;;;;;;5068556;28;20128;-71
2022/09/03 09:23:53;;;;;;;5.90;2.65;;;;;;;;;;5069864;28;20281;-71
2022/09/03 09:26:23;;;;;;;3.13;2.58;;;;;;;;;;5065553;28;20013;-72
2022/09/03 09:29:00;;;;;;;3.58;2.50;;;;;;;;;;5065245;28;20032;-73
2022/09/03 09:31:27;;;;;;;4.88;2.90;;;;;;;;;;5069517;28;20137;-71
2022/09/03 09:33:52;;;;;;;7.22;4.40;;;;;;;;;;5070939;28;20029;-73
2022/09/03 09:36:20;;;;;;;3.53;2.67;;;;;;;;;;5056957;28;20108;-71
2022/09/03 09:38:47;;;;;;;4.75;2.55;;;;;;;;;;5063685;28;20285;-71
2022/09/03 09:41:18;;;;;;;4.78;2.90;;;;;;;;;;5073586;28;20078;-71
2022/09/03 09:43:44;;;;;;;6.05;3.88;;;;;;;;;;5069042;28;20032;-72
2022/09/03 09:46:21;;;;;;;5.95;4.18;;;;;;;17.51;nan;100754.59;5046501;28;20024;-72
2022/09/03 09:48:54;;;;;;;46.42;30.10;;;;;;;;;;5050944;28;20035;-72
2022/09/03 09:51:19;;;;;;;11.25;6.25;;;;;;;;;;5069153;28;20085;-73
2022/09/03 09:53:44;;;;;;;4.27;3.00;;;;;;;;;;5068021;28;20028;-73
2022/09/03 09:56:23;;;;;;;6.03;2.77;;;;;;;;;;5050626;28;20063;-73
2022/09/03 09:58:48;;;;;;;4.85;2.63;;;;;;;;;;5070603;28;20119;-73
2022/09/03 10:01:22;;;;;;;4.35;3.45;;;;;;;17.55;nan;100761.00;5051659;28;20124;-73
2022/09/03 10:04:07;;;;;;;7.13;3.10;;;;;;;;;;5066498;28;20114;-73
2022/09/03 10:09:19;;;;;;;5.03;3.05;;;;;;;;;;5074332;28;20106;-74
2022/09/03 10:12:05;;;;;;;3.53;3.00;;;;;;;17.60;nan;100773.53;5070686;28;20368;-73
2022/09/03 10:14:40;;;;;;;4.25;3.28;;;;;;;;;;5051547;28;20076;-69
2022/09/03 10:17:15;;;;;;;5.43;2.95;;;;;;;;;;5069489;28;20115;-69
2022/09/03 10:20:26;;;;;;;5.10;3.05;;;;;;;17.73;nan;100774.91;5064119;28;20029;-70
2022/09/03 10:22:40;;;;;;;3.72;3.05;;;;;;;;;;5068178;28;20059;-69
2022/09/03 10:25:06;;;;;;;3.90;2.85;;;;;;;;;;5070693;28;20067;-69
2022/09/03 10:27:32;;;;;;;3.45;2.72;;;;;;;17.83;nan;100761.63;5053453;28;20063;-69
2022/09/03 10:29:59;;;;;;;2.90;2.60;;;;;;;17.95;nan;100762.16;5050595;28;20059;-69
2022/09/03 10:32:35;;;;;;;3.90;3.05;;;;;;;;;;5068416;28;20032;-70
2022/09/03 10:35:19;;;;;;;5.15;3.22;;;;;;;18.05;nan;100754.19;5070482;28;20073;-69
2022/09/03 10:38:03;;;;;;;3.90;2.78;;;;;;;18.02;nan;100770.69;5052339;28;20059;-69
2022/09/03 10:40:39;;;;;;;4.70;2.95;;;;;;;18.06;nan;100742.47;5063846;28;20028;-70
2022/09/03 10:43:32;;;;;;;5.90;3.33;;;;;;;18.14;nan;100746.44;5065219;28;20032;-69
2022/09/03 10:46:02;;;;;;;6.63;3.72;;;;;;;;;;5047431;28;20107;-69
2022/09/03 10:48:48;;;;;;;7.85;3.45;;;;;;;18.19;nan;100765.09;5062171;28;20083;-69
2022/09/03 10:51:25;;;;;;;4.45;3.47;;;;;;;;;;5049732;28;20111;-70
2022/09/03 10:54:29;;;;;;;7.22;3.47;;;;;;;18.23;nan;100784.03;5067852;28;20029;-70
2022/09/03 10:57:20;;;;;;;4.15;2.90;;;;;;;18.17;nan;100750.44;5063493;28;20048;-66
2022/09/03 11:00:08;;;;;;;7.07;2.97;;;;;;;;;;5067276;28;20056;-69
2022/09/03 11:02:53;;;;;;;4.50;3.00;;;;;;;18.28;nan;100821.38;5067811;28;20107;-68
2022/09/03 11:05:28;;;;;;;6.32;2.60;;;;;;;18.40;nan;100775.78;5062086;28;20012;-68
2022/09/03 11:08:10;;;;;;;3.83;2.95;;;;;;;;;;5062499;28;20020;-68
2022/09/03 11:10:40;;;;;;;7.30;3.10;;;;;;;;;;5068163;28;20024;-67
2022/09/03 11:13:15;;;;;;;3.10;2.80;;;;;;;;;;5051871;28;20039;-68
2022/09/03 11:15:54;;;;;;;6.45;3.40;;;;;;;18.62;nan;100772.81;5063427;28;20380;-69
2022/09/03 11:18:27;;;;;;;3.30;3.00;;;;;;;18.67;nan;100754.13;5065477;28;20024;-69
2022/09/03 11:20:59;;;;;;;4.78;3.03;;;;;;;18.66;nan;100776.53;5069209;28;20033;-68
2022/09/03 11:23:28;;;;;;;4.63;2.90;;;;;;;18.70;nan;100785.63;5064983;28;20588;-68
2022/09/03 11:26:01;;;;;;;2.92;2.65;;;;;;;18.73;nan;100737.06;5069530;28;20024;-69
2022/09/03 11:28:56;;;;;;;3.80;2.90;;;;;;;18.78;nan;100778.97;5068989;28;20548;-68
2022/09/03 11:31:25;;;;;;;4.50;3.42;;;;;;;;;;5067833;28;20127;-69
2022/09/03 11:34:00;;;;;;;4.85;3.20;;;;;;;18.83;nan;100746.94;5070923;28;20086;-70
2022/09/03 11:36:29;;;;;;;5.35;3.13;;;;;;;;;;5062282;28;20021;-69
2022/09/03 11:38:55;;;;;;;6.00;3.22;;;;;;;18.87;nan;100772.00;5051189;28;20036;-67
2022/09/03 11:41:26;;;;;;;3.47;2.60;;;;;;;18.91;nan;100770.38;5066180;28;20032;-71
2022/09/03 11:43:53;;;;;;;3.97;2.70;;;;;;;18.96;nan;100789.03;5060476;28;20096;-70
2022/09/03 11:46:21;;;;;;;2.78;2.58;;;;;;;18.97;nan;100779.97;5070458;28;20064;-70
2022/09/03 11:48:49;;;;;;;3.10;2.57;;;;;;;19.05;nan;100789.28;5054221;28;20062;-69
2022/09/03 11:51:18;;;;;;;3.78;3.22;;;;;;;19.00;nan;100783.97;5050634;28;20032;-70
2022/09/03 11:53:54;;;;;;;4.57;2.80;;;;;;;18.88;nan;100790.41;5048143;28;20543;-70
2022/09/03 11:56:19;;;;;;;4.13;2.50;;;;;;;18.89;nan;100768.00;5063400;28;20060;-71
2022/09/03 11:58:46;;;;;;;3.00;2.40;;;;;;;18.96;nan;100830.94;5048697;28;20052;-71
2022/09/03 12:01:12;;;;;;;3.28;2.20;;;;;;;;;;5051680;28;20028;-71
2022/09/03 12:03:52;;;;;;;2.47;2.28;;;;;;;19.13;nan;100842.13;5051412;28;20032;-70
2022/09/03 12:06:53;;;;;;;3.55;2.67;;;;;;;19.04;nan;100751.13;5065643;28;20036;-70
2022/09/03 12:09:46;;;;;;;2.88;2.28;;;;;;;19.19;nan;100776.97;5066180;28;20111;-70
2022/09/03 12:12:32;;;;;;;4.22;3.20;;;;;;;19.27;nan;100767.56;5048199;28;20024;-71
2022/09/03 12:15:22;;;;;;;4.18;3.00;;;;;;;19.34;nan;100762.75;5060622;28;20043;-71
2022/09/03 12:18:18;;;;;;;3.80;2.42;;;;;;;19.38;nan;100779.81;5043714;28;20536;-70
2022/09/03 12:20:45;;;;;;;3.95;2.70;;;;;;;19.40;nan;100758.19;5067671;28;20036;-71
2022/09/03 12:23:13;;;;;;;3.65;2.55;;;;;;;19.47;nan;100730.09;5045312;28;20055;-71
2022/09/03 12:25:46;;;;;;;3.70;3.05;;;;;;;;;;5068558;28;20024;-72
2022/09/03 12:28:20;;;;;;;6.40;2.97;;;;;;;19.44;nan;100714.63;5044281;28;20017;-71
2022/09/03 12:30:45;;;;;;;3.63;3.05;;;;;;;;;;5065875;28;20028;-71
2022/09/03 12:33:16;;;;;;;3.73;2.80;;;;;;;19.48;nan;100733.56;5065872;28;20107;-70
2022/09/03 12:35:41;;;;;;;3.97;2.85;;;;;;;19.49;nan;100732.47;5060415;28;20024;-68
2022/09/03 12:38:06;;;;;;;4.35;2.92;;;;;;;19.44;nan;100748.53;5069778;28;20068;-70
2022/09/03 12:40:32;;;;;;;3.78;3.10;;;;;;;19.48;nan;100749.59;5061436;28;20467;-69
2022/09/03 12:43:15;;;;;;;4.05;2.80;;;;;;;19.57;nan;100777.31;5066675;28;20025;-70
2022/09/03 12:45:46;;;;;;;2.75;2.45;;;;;;;19.60;nan;100755.38;5061560;28;20089;-73
2022/09/03 12:48:17;;;;;;;2.95;2.47;;;;;;;19.59;nan;100761.03;5049303;28;20052;-72
2022/09/03 12:50:44;;;;;;;3.50;3.00;;;;;;;19.62;nan;100747.91;5062783;28;20017;-72
2022/09/03 12:53:15;;;;;;;4.93;2.67;;;;;;;19.62;nan;100691.81;5067417;28;20119;-72
2022/09/03 12:55:43;;;;;;;4.80;2.67;;;;;;;19.60;nan;100760.72;5062027;28;20024;-72
2022/09/03 12:58:09;;;;;;;2.60;2.30;;;;;;;19.61;nan;100761.53;5063603;28;20093;-71
2022/09/03 13:00:41;;;;;;;3.05;2.40;;;;;;;19.58;nan;100749.53;5062874;28;20041;-74
2022/09/03 13:03:29;;;;;;;4.35;2.75;;;;;;;19.57;nan;100750.59;5064558;28;20025;-71
2022/09/03 13:06:01;;;;;;;2.57;2.37;;;;;;;19.55;nan;100707.34;5064999;28;20020;-72
2022/09/03 13:08:51;;;;;;;2.90;2.60;;;;;;;19.56;nan;100732.97;5061439;28;20321;-70
2022/09/03 13:11:21;;;;;;;2.85;2.55;;;;;;;19.58;nan;100727.34;5053358;28;20043;-72
2022/09/03 13:13:59;;;;;;;3.80;2.92;;;;;;;19.60;nan;100726.00;5061558;28;20445;-70
2022/09/03 13:16:44;;;;;;;3.08;2.30;;;;;;;19.61;nan;100738.31;5058459;28;20071;-72
2022/09/03 13:20:00;;;;;;;3.45;2.50;;;;;;;19.64;nan;100735.06;5076312;28;20060;-71
2022/09/03 13:23:03;;;;;;;2.67;2.20;;;;;;;19.66;nan;100738.25;5045726;28;20049;-72
2022/09/03 13:25:54;;;;;;;3.28;2.40;;;;;;;19.69;nan;100726.25;5062470;28;20103;-72
2022/09/03 13:28:44;;;;;;;5.03;2.55;;;;;;;19.72;nan;100737.16;5034611;28;20037;-72
2022/09/03 13:31:25;;;;;;;6.13;2.03;;;;;;;19.78;nan;100737.94;5061439;28;20084;-72
2022/09/03 13:34:01;;;;;;;2.35;2.13;;;;;;;19.80;nan;100722.44;5063474;28;20067;-72
2022/09/03 13:36:48;;;;;;;2.53;2.33;;;;;;;19.75;nan;100717.09;5046377;28;20020;-72
2022/09/03 13:39:46;;;;;;;2.53;2.22;;;;;;;19.81;nan;100723.25;5065090;28;20045;-72
2022/09/03 13:42:32;;;;;;;2.67;2.30;;;;;;;19.82;nan;100722.16;5042124;28;20064;-71
2022/09/03 13:45:05;;;;;;;3.35;2.35;;;;;;;19.82;nan;100722.16;5065601;28;20500;-70
2022/09/03 13:50:20;;;;;;;3.25;2.30;;;;;;;19.80;nan;100735.81;5066566;28;20093;-71
2022/09/03 13:50:38;;;;;;;4.90;4.45;;;;;;;19.73;nan;100776.19;5067237;28;20043;-71
2022/09/03 13:53:06;;;;;;;2.80;2.47;;;;;;;19.77;nan;100717.63;5065044;28;20664;-71
2022/09/03 13:55:50;;;;;;;3.70;2.20;;;;;;;19.66;nan;100690.19;5067089;28;20135;-71
2022/09/03 13:58:27;;;;;;;4.40;2.35;;;;;;;19.76;nan;100708.81;5065785;28;20528;-71
2022/09/03 14:00:59;;;;;;;2.58;2.17;;;;;;;19.83;nan;100726.44;5074824;28;20039;-70
2022/09/03 14:03:38;;;;;;;2.65;2.13;;;;;;;19.83;nan;100729.09;5053929;28;20039;-71
2022/09/03 14:06:31;;;;;;;2.33;2.10;;;;;;;19.82;nan;100720.25;5070531;28;20066;-71
2022/09/03 14:09:06;;;;;;;3.90;2.17;;;;;;;19.81;nan;100718.69;5068473;28;20078;-70